sensor_id;sensor_type;location;lat;lon;timestamp;pressure;altitude;pressure_sealevel;temperature
29701;BMP280;57917;51.380;-0.176;2023-11-19T00:03:55;100492.84;;;13.05
29701;BMP280;57917;51.380;-0.176;2023-11-19T00:09:42;100487.13;;;12.98
29701;BMP280;57917;51.380;-0.176;2023-11-19T00:15:30;100474.31;;;13.00
29701;BMP280;57917;51.380;-0.176;2023-11-19T00:21:16;100477.97;;;12.90
29701;BMP280;57917;51.380;-0.176;2023-11-19T00:27:03;100483.56;;;12.89
29701;BMP280;57917;51.380;-0.176;2023-11-19T00:32:50;100493.59;;;12.92
29701;BMP280;57917;51.380;-0.176;2023-11-19T00:38:37;100479.56;;;12.91
29701;BMP280;57917;51.380;-0.176;2023-11-19T00:44:23;100473.53;;;12.72
29701;BMP280;57917;51.380;-0.176;2023-11-19T00:50:11;100462.72;;;12.68
29701;BMP280;57917;51.380;-0.176;2023-11-19T00:56:00;100465.84;;;12.70
29701;BMP280;57917;51.380;-0.176;2023-11-19T01:01:46;100456.31;;;12.69
29701;BMP280;57917;51.380;-0.176;2023-11-19T01:07:34;100467.69;;;12.56
29701;BMP280;57917;51.380;-0.176;2023-11-19T01:13:21;100473.91;;;12.65
29701;BMP280;57917;51.380;-0.176;2023-11-19T01:19:08;100459.97;;;12.60
29701;BMP280;57917;51.380;-0.176;2023-11-19T01:25:05;100445.59;;;12.47
29701;BMP280;57917;51.380;-0.176;2023-11-19T01:37:40;100469.16;;;12.49
29701;BMP280;57917;51.380;-0.176;2023-11-19T01:43:43;100458.28;;;12.64
29701;BMP280;57917;51.380;-0.176;2023-11-19T01:49:31;100459.72;;;12.56
29701;BMP280;57917;51.380;-0.176;2023-11-19T01:55:20;100463.69;;;12.59
29701;BMP280;57917;51.380;-0.176;2023-11-19T02:01:07;100463.16;;;12.43
29701;BMP280;57917;51.380;-0.176;2023-11-19T02:06:58;100455.59;;;12.50
29701;BMP280;57917;51.380;-0.176;2023-11-19T02:12:45;100449.22;;;12.51
29701;BMP280;57917;51.380;-0.176;2023-11-19T02:18:38;100448.63;;;12.54
29701;BMP280;57917;51.380;-0.176;2023-11-19T02:24:36;100441.41;;;12.41
29701;BMP280;57917;51.380;-0.176;2023-11-19T02:30:55;100453.41;;;12.39
29701;BMP280;57917;51.380;-0.176;2023-11-19T02:36:44;100461.91;;;12.54
29701;BMP280;57917;51.380;-0.176;2023-11-19T02:42:34;100442.97;;;12.42
29701;BMP280;57917;51.380;-0.176;2023-11-19T02:48:25;100443.97;;;12.46
29701;BMP280;57917;51.380;-0.176;2023-11-19T02:54:11;100412.88;;;12.33
29701;BMP280;57917;51.380;-0.176;2023-11-19T02:59:59;100419.09;;;12.42
29701;BMP280;57917;51.380;-0.176;2023-11-19T03:05:47;100411.53;;;12.49
29701;BMP280;57917;51.380;-0.176;2023-11-19T03:11:34;100395.13;;;12.47
29701;BMP280;57917;51.380;-0.176;2023-11-19T03:17:23;100391.47;;;12.43
29701;BMP280;57917;51.380;-0.176;2023-11-19T03:23:11;100401.69;;;12.36
29701;BMP280;57917;51.380;-0.176;2023-11-19T03:29:01;100417.44;;;12.46
29701;BMP280;57917;51.380;-0.176;2023-11-19T03:34:48;100410.31;;;12.42
29701;BMP280;57917;51.380;-0.176;2023-11-19T03:40:35;100413.47;;;12.44
29701;BMP280;57917;51.380;-0.176;2023-11-19T03:46:22;100403.75;;;12.39
29701;BMP280;57917;51.380;-0.176;2023-11-19T03:52:12;100404.84;;;12.38
29701;BMP280;57917;51.380;-0.176;2023-11-19T03:58:06;100404.25;;;12.28
29701;BMP280;57917;51.380;-0.176;2023-11-19T04:03:56;100414.78;;;12.46
29701;BMP280;57917;51.380;-0.176;2023-11-19T04:09:43;100411.72;;;12.39
29701;BMP280;57917;51.380;-0.176;2023-11-19T04:15:29;100408.84;;;12.36
29701;BMP280;57917;51.380;-0.176;2023-11-19T04:21:17;100421.31;;;12.35
29701;BMP280;57917;51.380;-0.176;2023-11-19T04:27:05;100426.44;;;12.32
29701;BMP280;57917;51.380;-0.176;2023-11-19T04:32:53;100414.91;;;12.55
29701;BMP280;57917;51.380;-0.176;2023-11-19T04:38:40;100422.06;;;12.54
29701;BMP280;57917;51.380;-0.176;2023-11-19T04:44:28;100412.03;;;12.51
29701;BMP280;57917;51.380;-0.176;2023-11-19T04:50:16;100412.13;;;12.46
29701;BMP280;57917;51.380;-0.176;2023-11-19T04:56:09;100420.56;;;12.35
29701;BMP280;57917;51.380;-0.176;2023-11-19T05:01:56;100409.94;;;12.35
29701;BMP280;57917;51.380;-0.176;2023-11-19T05:07:45;100410.31;;;12.42
29701;BMP280;57917;51.380;-0.176;2023-11-19T05:13:32;100412.50;;;12.40
29701;BMP280;57917;51.380;-0.176;2023-11-19T05:19:19;100388.31;;;12.41
29701;BMP280;57917;51.380;-0.176;2023-11-19T05:25:07;100393.94;;;12.40
29701;BMP280;57917;51.380;-0.176;2023-11-19T05:30:55;100396.78;;;12.43
29701;BMP280;57917;51.380;-0.176;2023-11-19T05:36:42;100394.22;;;12.38
29701;BMP280;57917;51.380;-0.176;2023-11-19T05:42:29;100414.03;;;12.59
29701;BMP280;57917;51.380;-0.176;2023-11-19T05:48:16;100400.34;;;12.66
29701;BMP280;57917;51.380;-0.176;2023-11-19T05:54:03;100394.03;;;12.75
29701;BMP280;57917;51.380;-0.176;2023-11-19T05:59:51;100393.66;;;12.68
29701;BMP280;57917;51.380;-0.176;2023-11-19T06:05:38;100381.47;;;12.67
29701;BMP280;57917;51.380;-0.176;2023-11-19T06:11:25;100378.41;;;12.60
29701;BMP280;57917;51.380;-0.176;2023-11-19T06:17:13;100375.56;;;12.43
29701;BMP280;57917;51.380;-0.176;2023-11-19T06:23:00;100369.06;;;12.49
29701;BMP280;57917;51.380;-0.176;2023-11-19T06:28:47;100387.97;;;12.61
29701;BMP280;57917;51.380;-0.176;2023-11-19T06:34:34;100385.78;;;12.63
29701;BMP280;57917;51.380;-0.176;2023-11-19T06:40:21;100387.97;;;12.61
29701;BMP280;57917;51.380;-0.176;2023-11-19T06:46:17;100382.97;;;12.60
29701;BMP280;57917;51.380;-0.176;2023-11-19T06:52:04;100389.13;;;12.55
29701;BMP280;57917;51.380;-0.176;2023-11-19T06:57:51;100389.03;;;12.60
29701;BMP280;57917;51.380;-0.176;2023-11-19T07:03:38;100396.19;;;12.46
29701;BMP280;57917;51.380;-0.176;2023-11-19T07:09:26;100377.63;;;12.46
29701;BMP280;57917;51.380;-0.176;2023-11-19T07:15:13;100377.38;;;12.29
29701;BMP280;57917;51.380;-0.176;2023-11-19T07:21:00;100373.94;;;12.29
29701;BMP280;57917;51.380;-0.176;2023-11-19T07:26:47;100362.53;;;12.42
29701;BMP280;57917;51.380;-0.176;2023-11-19T07:32:34;100371.69;;;12.36
29701;BMP280;57917;51.380;-0.176;2023-11-19T07:38:21;100372.47;;;12.50
29701;BMP280;57917;51.380;-0.176;2023-11-19T07:44:09;100373.50;;;12.40
29701;BMP280;57917;51.380;-0.176;2023-11-19T07:49:55;100391.47;;;12.43
29701;BMP280;57917;51.380;-0.176;2023-11-19T07:55:42;100385.00;;;12.49
29701;BMP280;57917;51.380;-0.176;2023-11-19T08:01:30;100394.44;;;12.55
29701;BMP280;57917;51.380;-0.176;2023-11-19T08:07:18;100410.34;;;12.69
29701;BMP280;57917;51.380;-0.176;2023-11-19T08:13:05;100392.19;;;12.76
29701;BMP280;57917;51.380;-0.176;2023-11-19T08:18:52;100406.63;;;12.83
29701;BMP280;57917;51.380;-0.176;2023-11-19T08:24:39;100428.16;;;12.96
29701;BMP280;57917;51.380;-0.176;2023-11-19T08:30:26;100424.03;;;13.17
29701;BMP280;57917;51.380;-0.176;2023-11-19T08:36:18;100436.53;;;13.03
29701;BMP280;57917;51.380;-0.176;2023-11-19T08:42:08;100432.22;;;13.07
29701;BMP280;57917;51.380;-0.176;2023-11-19T08:47:56;100455.03;;;13.21
29701;BMP280;57917;51.380;-0.176;2023-11-19T08:53:44;100447.50;;;13.50
29701;BMP280;57917;51.380;-0.176;2023-11-19T08:59:32;100438.22;;;13.48
29701;BMP280;57917;51.380;-0.176;2023-11-19T09:05:19;100432.34;;;13.51
29701;BMP280;57917;51.380;-0.176;2023-11-19T09:11:09;100440.97;;;13.56
29701;BMP280;57917;51.380;-0.176;2023-11-19T09:16:57;100429.81;;;13.68
29701;BMP280;57917;51.380;-0.176;2023-11-19T09:22:44;100423.38;;;13.82
29701;BMP280;57917;51.380;-0.176;2023-11-19T09:28:32;100398.44;;;13.78
29701;BMP280;57917;51.380;-0.176;2023-11-19T09:34:22;100401.66;;;13.89
29701;BMP280;57917;51.380;-0.176;2023-11-19T09:40:10;100404.41;;;13.84
29701;BMP280;57917;51.380;-0.176;2023-11-19T09:46:02;100426.91;;;13.78
29701;BMP280;57917;51.380;-0.176;2023-11-19T09:51:53;100408.16;;;14.05
29701;BMP280;57917;51.380;-0.176;2023-11-19T09:57:41;100407.09;;;14.36
29701;BMP280;57917;51.380;-0.176;2023-11-19T10:03:35;100398.09;;;14.63
29701;BMP280;57917;51.380;-0.176;2023-11-19T10:09:26;100371.16;;;14.73
29701;BMP280;57917;51.380;-0.176;2023-11-19T10:15:22;100377.31;;;14.82
29701;BMP280;57917;51.380;-0.176;2023-11-19T10:21:13;100377.31;;;14.82
29701;BMP280;57917;51.380;-0.176;2023-11-19T10:27:07;100383.59;;;15.03
29701;BMP280;57917;51.380;-0.176;2023-11-19T10:33:08;100372.78;;;15.17
29701;BMP280;57917;51.380;-0.176;2023-11-19T10:38:56;100381.03;;;14.81
29701;BMP280;57917;51.380;-0.176;2023-11-19T10:44:45;100365.19;;;14.68
29701;BMP280;57917;51.380;-0.176;2023-11-19T10:50:33;100359.84;;;14.59
29701;BMP280;57917;51.380;-0.176;2023-11-19T10:56:25;100379.88;;;14.48
29701;BMP280;57917;51.380;-0.176;2023-11-19T11:02:16;100374.69;;;14.43
29701;BMP280;57917;51.380;-0.176;2023-11-19T11:08:06;100379.53;;;14.49
29701;BMP280;57917;51.380;-0.176;2023-11-19T11:13:54;100387.84;;;14.48
29701;BMP280;57917;51.380;-0.176;2023-11-19T11:19:46;100384.91;;;14.58
29701;BMP280;57917;51.380;-0.176;2023-11-19T11:25:37;100366.56;;;14.57
29701;BMP280;57917;51.380;-0.176;2023-11-19T11:31:48;100366.94;;;14.72
29701;BMP280;57917;51.380;-0.176;2023-11-19T11:37:44;100377.41;;;14.69
29701;BMP280;57917;51.380;-0.176;2023-11-19T11:49:32;100365.22;;;14.76
29701;BMP280;57917;51.380;-0.176;2023-11-19T11:55:37;100352.84;;;14.80
29701;BMP280;57917;51.380;-0.176;2023-11-19T12:01:57;100364.75;;;14.74
29701;BMP280;57917;51.380;-0.176;2023-11-19T12:07:54;100344.88;;;14.89
29701;BMP280;57917;51.380;-0.176;2023-11-19T12:13:46;100332.00;;;14.91
29701;BMP280;57917;51.380;-0.176;2023-11-19T12:19:35;100332.00;;;14.91
29701;BMP280;57917;51.380;-0.176;2023-11-19T12:25:27;100338.91;;;15.00
29701;BMP280;57917;51.380;-0.176;2023-11-19T12:31:14;100329.66;;;14.98
29701;BMP280;57917;51.380;-0.176;2023-11-19T12:37:05;100318.38;;;15.09
29701;BMP280;57917;51.380;-0.176;2023-11-19T12:42:55;100345.31;;;14.99
29701;BMP280;57917;51.380;-0.176;2023-11-19T12:48:43;100323.03;;;14.95
29701;BMP280;57917;51.380;-0.176;2023-11-19T12:54:34;100338.84;;;14.66
29701;BMP280;57917;51.380;-0.176;2023-11-19T13:00:22;100322.41;;;14.64
29701;BMP280;57917;51.380;-0.176;2023-11-19T13:06:13;100327.09;;;14.67
29701;BMP280;57917;51.380;-0.176;2023-11-19T13:12:15;100318.66;;;14.65
29701;BMP280;57917;51.380;-0.176;2023-11-19T13:18:15;100301.72;;;14.78
29701;BMP280;57917;51.380;-0.176;2023-11-19T13:24:10;100303.44;;;14.91
29701;BMP280;57917;51.380;-0.176;2023-11-19T13:29:57;100295.16;;;14.84
29701;BMP280;57917;51.380;-0.176;2023-11-19T13:35:45;100301.91;;;14.90
29701;BMP280;57917;51.380;-0.176;2023-11-19T13:41:32;100299.38;;;15.02
29701;BMP280;57917;51.380;-0.176;2023-11-19T13:47:25;100290.16;;;15.00
29701;BMP280;57917;51.380;-0.176;2023-11-19T13:53:15;100286.06;;;14.85
29701;BMP280;57917;51.380;-0.176;2023-11-19T13:59:02;100276.19;;;14.77
29701;BMP280;57917;51.380;-0.176;2023-11-19T14:04:50;100267.84;;;14.79
29701;BMP280;57917;51.380;-0.176;2023-11-19T14:10:38;100262.72;;;14.82
29701;BMP280;57917;51.380;-0.176;2023-11-19T14:16:27;100266.16;;;14.83
29701;BMP280;57917;51.380;-0.176;2023-11-19T14:22:14;100267.72;;;14.75
29701;BMP280;57917;51.380;-0.176;2023-11-19T14:28:01;100267.88;;;14.70
29701;BMP280;57917;51.380;-0.176;2023-11-19T14:33:52;100254.41;;;14.75
29701;BMP280;57917;51.380;-0.176;2023-11-19T14:39:46;100250.66;;;14.76
29701;BMP280;57917;51.380;-0.176;2023-11-19T14:45:39;100267.84;;;14.79
29701;BMP280;57917;51.380;-0.176;2023-11-19T14:51:38;100282.28;;;14.69
29701;BMP280;57917;51.380;-0.176;2023-11-19T14:57:24;100280.88;;;14.63
29701;BMP280;57917;51.380;-0.176;2023-11-19T15:03:12;100302.81;;;14.69
29701;BMP280;57917;51.380;-0.176;2023-11-19T15:08:59;100314.22;;;14.52
29701;BMP280;57917;51.380;-0.176;2023-11-19T15:14:46;100314.38;;;14.56
29701;BMP280;57917;51.380;-0.176;2023-11-19T15:20:32;100330.50;;;14.51
29701;BMP280;57917;51.380;-0.176;2023-11-19T15:26:19;100343.38;;;14.57
29701;BMP280;57917;51.380;-0.176;2023-11-19T15:32:06;100357.94;;;14.43
29701;BMP280;57917;51.380;-0.176;2023-11-19T15:38:00;100367.59;;;14.38
29701;BMP280;57917;51.380;-0.176;2023-11-19T15:43:47;100360.84;;;14.32
29701;BMP280;57917;51.380;-0.176;2023-11-19T15:49:34;100365.88;;;14.34
29701;BMP280;57917;51.380;-0.176;2023-11-19T15:55:21;100365.72;;;14.30
29701;BMP280;57917;51.380;-0.176;2023-11-19T16:01:08;100373.28;;;14.15
29701;BMP280;57917;51.380;-0.176;2023-11-19T16:06:55;100387.78;;;14.00
29701;BMP280;57917;51.380;-0.176;2023-11-19T16:12:46;100397.00;;;13.94
29701;BMP280;57917;51.380;-0.176;2023-11-19T16:18:33;100396.19;;;13.72
29701;BMP280;57917;51.380;-0.176;2023-11-19T16:24:20;100404.34;;;13.97
29701;BMP280;57917;51.380;-0.176;2023-11-19T16:30:15;100395.34;;;14.07
29701;BMP280;57917;51.380;-0.176;2023-11-19T16:36:02;100410.81;;;14.05
29701;BMP280;57917;51.380;-0.176;2023-11-19T16:41:50;100428.72;;;13.69
29701;BMP280;57917;51.380;-0.176;2023-11-19T16:47:42;100447.84;;;13.71
29701;BMP280;57917;51.380;-0.176;2023-11-19T16:53:32;100455.34;;;13.91
29701;BMP280;57917;51.380;-0.176;2023-11-19T16:59:22;100477.19;;;13.66
29701;BMP280;57917;51.380;-0.176;2023-11-19T17:05:11;100496.31;;;13.68
29701;BMP280;57917;51.380;-0.176;2023-11-19T17:11:01;100502.25;;;13.65
29701;BMP280;57917;51.380;-0.176;2023-11-19T17:16:50;100513.56;;;13.57
29701;BMP280;57917;51.380;-0.176;2023-11-19T17:22:40;100509.03;;;13.71
29701;BMP280;57917;51.380;-0.176;2023-11-19T17:28:28;100524.88;;;13.76
29701;BMP280;57917;51.380;-0.176;2023-11-19T17:34:15;100540.88;;;13.49
29701;BMP280;57917;51.380;-0.176;2023-11-19T17:40:05;100531.13;;;13.58
29701;BMP280;57917;51.380;-0.176;2023-11-19T17:45:53;100530.47;;;13.39
29701;BMP280;57917;51.380;-0.176;2023-11-19T17:51:46;100538.50;;;13.47
29701;BMP280;57917;51.380;-0.176;2023-11-19T17:57:33;100538.81;;;13.19
29701;BMP280;57917;51.380;-0.176;2023-11-19T18:03:21;100535.78;;;13.39
29701;BMP280;57917;51.380;-0.176;2023-11-19T18:09:08;100522.84;;;13.19
29701;BMP280;57917;51.380;-0.176;2023-11-19T18:14:56;100533.38;;;13.10
29701;BMP280;57917;51.380;-0.176;2023-11-19T18:20:49;100537.44;;;13.08
29701;BMP280;57917;51.380;-0.176;2023-11-19T18:26:36;100547.16;;;12.99
29701;BMP280;57917;51.380;-0.176;2023-11-19T18:32:35;100547.72;;;12.96
29701;BMP280;57917;51.380;-0.176;2023-11-19T18:38:23;100571.63;;;12.96
29701;BMP280;57917;51.380;-0.176;2023-11-19T18:44:34;100546.38;;;12.98
29701;BMP280;57917;51.380;-0.176;2023-11-19T18:50:22;100573.22;;;12.97
29701;BMP280;57917;51.380;-0.176;2023-11-19T18:56:10;100571.75;;;12.91
29701;BMP280;57917;51.380;-0.176;2023-11-19T19:02:05;100571.88;;;12.99
29701;BMP280;57917;51.380;-0.176;2023-11-19T19:07:56;100570.13;;;12.76
29701;BMP280;57917;51.380;-0.176;2023-11-19T19:13:52;100566.00;;;12.83
29701;BMP280;57917;51.380;-0.176;2023-11-19T19:19:49;100574.63;;;12.94
29701;BMP280;57917;51.380;-0.176;2023-11-19T19:25:51;100567.84;;;13.02
29701;BMP280;57917;51.380;-0.176;2023-11-19T19:32:02;100561.13;;;12.91
29701;BMP280;57917;51.380;-0.176;2023-11-19T19:37:49;100583.75;;;12.88
29701;BMP280;57917;51.380;-0.176;2023-11-19T19:43:42;100578.53;;;12.97
29701;BMP280;57917;51.380;-0.176;2023-11-19T19:49:29;100574.09;;;12.92
29701;BMP280;57917;51.380;-0.176;2023-11-19T19:55:19;100561.50;;;12.98
29701;BMP280;57917;51.380;-0.176;2023-11-19T20:01:12;100560.81;;;12.78
29701;BMP280;57917;51.380;-0.176;2023-11-19T20:07:01;100570.53;;;12.83
29701;BMP280;57917;51.380;-0.176;2023-11-19T20:12:48;100572.78;;;12.76
29701;BMP280;57917;51.380;-0.176;2023-11-19T20:18:35;100570.75;;;12.87
29701;BMP280;57917;51.380;-0.176;2023-11-19T20:24:22;100568.78;;;12.78
29701;BMP280;57917;51.380;-0.176;2023-11-19T20:30:13;100582.81;;;12.79
29701;BMP280;57917;51.380;-0.176;2023-11-19T20:36:02;100585.69;;;12.50
29701;BMP280;57917;51.380;-0.176;2023-11-19T20:41:49;100578.50;;;12.51
29701;BMP280;57917;51.380;-0.176;2023-11-19T20:47:38;100591.84;;;12.46
29701;BMP280;57917;51.380;-0.176;2023-11-19T20:53:25;100601.59;;;12.50
29701;BMP280;57917;51.380;-0.176;2023-11-19T20:59:12;100597.31;;;12.54
29701;BMP280;57917;51.380;-0.176;2023-11-19T21:05:03;100617.75;;;12.35
29701;BMP280;57917;51.380;-0.176;2023-11-19T21:10:50;100615.09;;;12.35
29701;BMP280;57917;51.380;-0.176;2023-11-19T21:16:38;100601.59;;;12.50
29701;BMP280;57917;51.380;-0.176;2023-11-19T21:22:25;100615.09;;;12.35
29701;BMP280;57917;51.380;-0.176;2023-11-19T21:28:16;100629.91;;;12.41
29701;BMP280;57917;51.380;-0.176;2023-11-19T21:34:05;100650.25;;;12.46
29701;BMP280;57917;51.380;-0.176;2023-11-19T21:39:52;100663.13;;;12.57
29701;BMP280;57917;51.380;-0.176;2023-11-19T21:45:39;100667.50;;;12.48
29701;BMP280;57917;51.380;-0.176;2023-11-19T21:51:27;100666.94;;;12.33
29701;BMP280;57917;51.380;-0.176;2023-11-19T21:57:15;100668.59;;;12.47
29701;BMP280;57917;51.380;-0.176;2023-11-19T22:10:33;100678.97;;;12.44
29701;BMP280;57917;51.380;-0.176;2023-11-19T22:16:23;100667.84;;;12.60
29701;BMP280;57917;51.380;-0.176;2023-11-19T22:22:17;100663.91;;;12.58
29701;BMP280;57917;51.380;-0.176;2023-11-19T22:29:12;100672.44;;;12.36
29701;BMP280;57917;51.380;-0.176;2023-11-19T22:35:08;100685.38;;;12.61
29701;BMP280;57917;51.380;-0.176;2023-11-19T22:40:55;100678.41;;;12.47
29701;BMP280;57917;51.380;-0.176;2023-11-19T22:46:44;100675.03;;;12.41
29701;BMP280;57917;51.380;-0.176;2023-11-19T22:52:33;100677.16;;;12.39
29701;BMP280;57917;51.380;-0.176;2023-11-19T22:58:51;100661.88;;;12.50
29701;BMP280;57917;51.380;-0.176;2023-11-19T23:05:07;100670.19;;;12.25
29701;BMP280;57917;51.380;-0.176;2023-11-19T23:11:07;100670.56;;;12.37
29701;BMP280;57917;51.380;-0.176;2023-11-19T23:16:57;100686.91;;;12.25
29701;BMP280;57917;51.380;-0.176;2023-11-19T23:22:48;100676.47;;;12.34
29701;BMP280;57917;51.380;-0.176;2023-11-19T23:28:36;100684.53;;;12.24
29701;BMP280;57917;51.380;-0.176;2023-11-19T23:34:30;100675.50;;;12.25
29701;BMP280;57917;51.380;-0.176;2023-11-19T23:40:23;100687.03;;;12.15
29701;BMP280;57917;51.380;-0.176;2023-11-19T23:46:10;100695.00;;;12.15
29701;BMP280;57917;51.380;-0.176;2023-11-19T23:51:59;100708.31;;;12.10
29701;BMP280;57917;51.380;-0.176;2023-11-19T23:57:50;100689.38;;;11.98
